Latest Weather Observations for Mount Gambier

IDS60801

Issued at 3:31 pm CST Wednesday 31 August 2016 (issued every 30 minutes, with the page automatically refreshed every 10 minutes)

About weather observations | Map of weather stations | Latest weather observations for SA | Other Formats
Station Details ID: 026021 Name: MOUNT GAMBIER AERO Lat: -37.75 Lon: 140.77 Height: 63.0 m
Data from the previous 72 hours. | See also: Recent months at Mount Gambier
Date/Time
CST
Temp
°C
App
Temp
°C
Dew
Point
°C
Rel
Hum
%
Delta-T
°C
Wind Press
QNH
hPa
Press
MSL
hPa
Rain since
9am
mm
Dir  Spd
km/h
Gust
km/h
Spd
kts
Gust
kts
31/03:23pm 12.9 7.3 11.4 91 0.8 W 32 35 17 19 1014.3 1014.4 0.2
31/03:00pm 14.4 9.8 9.6 73 2.5 W 24 33 13 18 1014.1 1014.2 0.2
31/02:30pm 15.3 10.3 9.7 69 2.9 WNW 26 39 14 21 1014.0 1014.1 0.2
31/02:00pm 14.0 8.5 9.1 72 2.5 W 28 37 15 20 1014.0 1014.1 0.2
31/01:30pm 14.8 9.1 9.8 72 2.6 W 30 35 16 19 1013.8 1013.9 0.2
31/01:00pm 14.5 9.8 10.7 78 2.0 W 26 37 14 20 1013.7 1013.8 0.2
31/12:30pm 15.0 10.3 10.7 75 2.3 W 26 33 14 18 1013.9 1014.0 0.0
31/12:00pm 13.5 8.5 10.8 84 1.4 WNW 28 39 15 21 1014.3 1014.4 0.0
31/11:54am 13.4 7.7 11.3 87 1.1 WNW 32 44 17 24 1014.4 1014.5 0.0
31/11:30am 14.8 10.2 9.6 71 2.7 WNW 24 35 13 19 1014.2 1014.3 0.0
31/11:00am 13.9 9.3 10.9 82 1.6 WNW 26 35 14 19 1014.2 1014.3 0.0
31/10:30am 13.9 10.4 10.9 82 1.6 NW 20 28 11 15 1014.3 1014.4 0.0
31/10:00am 13.2 8.3 9.9 80 1.7 NW 26 35 14 19 1014.2 1014.3 0.0
31/09:30am 13.8 10.2 10.6 81 1.7 NW 20 30 11 16 1014.0 1014.1 0.0
31/09:00am 12.9 9.7 10.0 82 1.5 NW 17 22 9 12 1014.0 1014.1 1.6
31/08:30am 13.1 9.4 10.2 82 1.5 NW 20 28 11 15 1013.8 1013.9 1.6
31/08:00am 11.9 9.6 10.4 90 0.8 NW 13 17 7 9 1013.4 1013.5 1.6
31/07:30am 11.5 8.8 10.5 94 0.5 NW 15 17 8 9 1013.1 1013.2 1.6
31/07:00am 11.4 8.3 10.2 92 0.6 WNW 17 20 9 11 1012.7 1012.8 1.6
31/06:44am 11.3 7.8 10.3 94 0.5 WNW 19 26 10 14 1012.5 1012.6 1.6
31/06:42am 11.3 7.8 10.3 94 0.5 WNW 19 26 10 14 1012.5 1012.6 1.6
31/06:33am 11.4 6.9 10.2 92 0.6 WNW 24 33 13 18 1012.4 1012.5 1.6
31/06:30am 11.5 7.1 10.3 92 0.6 WNW 24 33 13 18 1012.3 1012.4 1.6
31/06:00am 11.8 8.5 10.8 94 0.5 NW 19 26 10 14 1011.9 1012.0 1.6
31/05:42am 11.8 8.4 10.6 92 0.6 NW 19 30 10 16 1011.5 1011.5 1.6
31/05:30am 11.7 8.3 10.7 94 0.5 NW 19 28 10 15 1011.3 1011.3 1.6
31/05:27am 11.7 8.4 10.9 95 0.4 NW 19 24 10 13 1011.2 1011.2 1.6
31/05:06am 11.7 8.4 10.9 95 0.4 NNW 19 30 10 16 1011.0 1011.0 1.2
31/05:00am 11.6 9.0 10.8 95 0.4 NNW 15 26 8 14 1010.9 1010.9 1.2
31/04:30am 11.2 8.2 10.8 97 0.2 NNW 17 24 9 13 1010.8 1010.8 1.2
31/04:25am 11.2 8.2 10.6 96 0.3 NNW 17 24 9 13 1010.6 1010.7 1.2
31/04:00am 11.3 8.3 10.7 96 0.3 NNW 17 22 9 12 1010.3 1010.4 1.2
31/03:53am 11.7 8.4 10.9 95 0.4 NNW 19 26 10 14 1010.3 1010.4 1.2
31/03:39am 11.6 8.6 10.6 94 0.5 NNW 17 24 9 13 1010.2 1010.3 1.2
31/03:30am 11.5 8.6 10.9 96 0.3 NNW 17 24 9 13 1010.2 1010.3 1.2
31/03:00am 11.9 8.7 11.1 95 0.4 NNW 19 24 10 13 1010.3 1010.4 1.2
31/02:30am 12.3 8.9 11.4 94 0.5 NNW 20 28 11 15 1010.3 1010.4 1.2
31/02:00am 12.5 10.6 11.8 95 0.4 NNW 13 22 7 12 1010.5 1010.6 1.2
31/01:38am 12.5 10.2 11.8 95 0.4 N 15 20 8 11 1010.8 1010.8 1.2
31/01:30am 12.5 10.6 11.8 95 0.4 N 13 19 7 10 1010.9 1010.9 1.2
31/01:23am 12.3 10.3 11.5 95 0.4 N 13 20 7 11 1010.8 1010.8 1.2
31/01:00am 12.4 9.7 11.6 95 0.4 N 17 26 9 14 1011.0 1011.0 1.2
31/12:30am 12.7 10.4 11.6 93 0.6 NNW 15 20 8 11 1011.2 1011.2 1.2
31/12:07am 12.9 10.6 11.6 92 0.7 N 15 22 8 12 1010.9 1010.9 1.2
31/12:00am 12.7 10.7 11.6 93 0.6 N 13 17 7 9 1010.8 1010.8 1.2
 
Date/Time
CST
Temp
°C
App
Temp
°C
Dew
Point
°C
Rel
Hum
%
Delta-T
°C
Wind Press
QNH
hPa
Press
MSL
hPa
Rain since
9am
mm
Dir  Spd
km/h
Gust
km/h
Spd
kts
Gust
kts
30/11:30pm 12.5 9.9 12.1 97 0.2 N 17 22 9 12 1010.6 1010.7 1.2
30/11:00pm 12.3 10.4 11.7 96 0.3 N 13 17 7 9 1010.6 1010.7 1.2
30/10:30pm 11.8 9.8 11.4 97 0.2 N 13 17 7 9 1010.9 1010.9 1.2
30/10:00pm 12.2 9.9 11.8 97 0.2 NNE 15 17 8 9 1011.0 1011.0 1.2
30/09:48pm 12.2 9.9 11.8 97 0.2 NNE 15 17 8 9 1011.0 1011.0 1.2
30/09:30pm 11.8 9.8 11.6 99 0.1 NNE 13 15 7 8 1011.1 1011.1 1.2
30/09:00pm 12.3 11.1 11.7 96 0.3 NNE 9 11 5 6 1011.2 1011.2 1.2
30/08:30pm 12.0 10.4 11.6 97 0.2 NNE 11 11 6 6 1011.2 1011.2 1.2
30/08:13pm 11.8 10.2 11.4 97 0.2 NE 11 13 6 7 1011.2 1011.2 1.2
30/08:07pm 11.9 10.2 11.1 95 0.4 NE 11 13 6 7 1011.2 1011.2 1.2
30/08:06pm 11.6 9.9 11.2 97 0.2 NE 11 13 6 7 1011.2 1011.2 1.2
30/08:00pm 11.5 9.8 11.1 97 0.2 NE 11 13 6 7 1011.2 1011.2 1.2
30/07:32pm 11.7 10.0 11.1 96 0.3 ENE 11 11 6 6 1011.3 1011.3 1.2
30/07:30pm 11.7 10.4 11.3 97 0.2 ENE 9 11 5 6 1011.3 1011.3 1.2
30/07:00pm 12.2 11.6 11.6 96 0.3 NE 6 9 3 5 1011.0 1011.0 1.2
30/06:33pm 12.4 11.6 11.6 95 0.4 N 7 9 4 5 1011.1 1011.1 1.2
30/06:30pm 12.4 11.6 11.8 96 0.3 N 7 9 4 5 1011.1 1011.1 1.2
30/06:00pm 12.9 11.1 12.2 95 0.4 N 13 15 7 8 1010.9 1010.9 1.2
30/05:43pm 12.8 11.7 12.1 95 0.4 N 9 13 5 7 1010.6 1010.7 1.2
30/05:30pm 12.7 11.6 11.8 94 0.5 N 9 13 5 7 1010.5 1010.6 1.2
30/05:14pm 13.0 11.5 11.9 93 0.6 N 11 15 6 8 1010.3 1010.4 1.2
30/05:00pm 13.3 11.5 12.0 92 0.7 N 13 19 7 10 1010.2 1010.3 1.2
30/04:30pm 13.4 11.3 12.3 93 0.6 N 15 22 8 12 1010.3 1010.4 1.2
30/04:00pm 13.5 11.3 12.2 92 0.7 N 15 19 8 10 1010.2 1010.3 1.2
30/03:30pm 13.6 10.6 12.1 91 0.8 N 19 26 10 14 1010.1 1010.2 1.2
30/03:00pm 13.3 9.8 12.2 93 0.6 N 22 35 12 19 1010.0 1010.1 1.2
30/02:30pm 13.0 10.0 12.4 96 0.3 N 20 28 11 15 1010.2 1010.3 1.2
30/02:00pm 12.8 10.2 11.9 94 0.5 N 17 26 9 14 1010.4 1010.5 0.8
30/01:56pm 12.7 9.6 11.6 93 0.6 N 19 26 10 14 1010.4 1010.5 0.8
30/01:30pm 12.6 10.2 11.5 93 0.6 N 15 20 8 11 1010.3 1010.4 0.6
30/01:03pm 12.6 9.5 11.5 93 0.6 N 19 26 10 14 1010.9 1010.9 0.6
30/01:00pm 12.6 9.3 11.5 93 0.6 N 20 28 11 15 1010.9 1010.9 0.6
30/12:30pm 12.8 8.3 11.3 91 0.8 N 26 35 14 19 1011.1 1011.1 0.2
30/12:12pm 13.3 8.0 11.2 87 1.1 NNE 30 41 16 22 1011.3 1011.3 0.0
30/12:01pm 13.5 8.5 11.0 85 1.3 N 28 35 15 19 1011.5 1011.5 0.0
30/12:00pm 13.4 8.5 11.3 87 1.1 N 28 37 15 20 1011.5 1011.5 0.0
30/11:30am 12.8 7.1 11.1 89 0.9 NNE 32 50 17 27 1012.2 1012.3 0.0
30/11:24am 13.1 7.3 10.8 86 1.2 NNE 32 50 17 27 1012.3 1012.4 0.0
30/11:00am 13.6 8.7 11.3 86 1.2 NNE 28 35 15 19 1012.6 1012.7 0.0
30/10:30am 13.3 8.5 11.6 89 0.9 NNE 28 37 15 20 1012.9 1013.0 0.0
30/10:00am 12.5 8.3 11.0 90 0.8 NNE 24 32 13 17 1013.0 1013.1 0.0
30/09:30am 12.0 8.5 11.0 94 0.5 NNE 20 30 11 16 1013.3 1013.4 0.0
30/09:00am 11.6 7.3 10.6 94 0.5 NNE 24 32 13 17 1013.7 1013.8 5.0
30/08:30am 11.3 6.6 10.5 95 0.4 NNE 26 35 14 19 1014.3 1014.4 4.8
30/08:00am 11.3 5.7 10.3 94 0.5 NNE 30 35 16 19 1014.3 1014.4 4.2
30/07:30am 11.2 5.6 10.2 94 0.5 NNE 30 39 16 21 1014.2 1014.3 4.0
30/07:00am 11.1 5.5 10.1 94 0.5 NNE 30 35 16 19 1013.9 1014.0 4.0
30/06:30am 11.0 5.4 10.2 95 0.4 NNE 30 39 16 21 1013.9 1014.0 4.0
30/06:12am 11.0 5.4 10.2 95 0.4 NNE 30 39 16 21 1014.3 1014.4 3.6
30/06:00am 11.1 5.1 10.1 94 0.5 NNE 32 37 17 20 1014.4 1014.5 3.2
30/05:30am 11.0 5.7 10.0 93 0.5 NE 28 33 15 18 1014.0 1014.1 3.0
30/05:00am 11.0 6.1 10.0 93 0.5 NNE 26 32 14 17 1014.6 1014.7 2.6
30/04:30am 11.0 5.3 9.8 92 0.6 NNE 30 35 16 19 1014.6 1014.7 2.0
30/04:00am 11.3 5.9 9.5 89 0.9 NNE 28 37 15 20 1014.5 1014.6 1.4
30/03:30am 11.6 6.5 9.2 85 1.2 NE 26 33 14 18 1014.7 1014.8 0.8
30/03:00am 11.8 6.3 9.2 84 1.3 NNE 28 33 15 18 1014.8 1014.9 0.6
30/02:30am 12.7 7.0 8.3 74 2.2 NE 28 33 15 18 1014.8 1014.9 0.4
30/02:00am 12.5 6.8 8.5 76 2.0 NE 28 35 15 19 1015.2 1015.3 0.4
30/01:30am 12.5 7.6 8.5 76 2.0 NE 24 30 13 16 1015.9 1016.0 0.4
30/01:00am 12.7 7.9 8.7 76 2.0 NNE 24 35 13 19 1016.3 1016.4 0.2
30/12:30am 14.1 8.6 7.6 65 3.2 NNE 26 35 14 19 1016.1 1016.2 0.0
30/12:00am 14.7 7.9 6.9 59 3.8 NNE 32 39 17 21 1015.8 1015.9 0.0
 
Date/Time
CST
Temp
°C
App
Temp
°C
Dew
Point
°C
Rel
Hum
%
Delta-T
°C
Wind Press
QNH
hPa
Press
MSL
hPa
Rain since
9am
mm
Dir  Spd
km/h
Gust
km/h
Spd
kts
Gust
kts
29/11:30pm 14.9 8.5 6.9 58 3.9 NNE 30 39 16 21 1015.1 1015.2 0.0
29/11:00pm 15.3 8.5 6.7 56 4.2 NNE 32 41 17 22 1015.4 1015.5 0.0
29/10:30pm 15.5 9.3 6.2 54 4.5 NE 28 39 15 21 1015.8 1015.9 0.0
29/10:00pm 15.7 10.2 6.0 52 4.7 NE 24 32 13 17 1016.0 1016.1 0.0
29/09:30pm 15.4 10.1 6.6 55 4.3 NE 24 28 13 15 1016.3 1016.4 0.0
29/09:00pm 15.8 10.0 6.4 53 4.6 NE 26 32 14 17 1016.4 1016.5 0.0
29/08:30pm 15.8 10.4 6.4 53 4.6 NE 24 30 13 16 1016.2 1016.3 0.0
29/08:00pm 15.9 10.8 6.2 52 4.7 NE 22 35 12 19 1016.2 1016.3 0.0
29/07:30pm 15.5 10.6 7.0 57 4.2 ENE 22 30 12 16 1016.1 1016.2 0.0
29/07:00pm 15.7 10.4 7.0 56 4.3 ENE 24 30 13 16 1015.8 1015.9 0.0
29/06:30pm 15.4 11.1 8.0 61 3.7 ENE 20 26 11 14 1015.6 1015.7 0.0
29/06:00pm 15.0 11.2 8.9 67 3.1 ENE 19 26 10 14 1015.7 1015.8 0.0
29/05:30pm 16.5 12.7 8.9 61 3.9 ENE 19 24 10 13 1015.4 1015.5 0.0
29/05:00pm 17.6 13.7 9.4 58 4.3 NE 20 26 11 14 1015.5 1015.6 0.0
29/04:30pm 18.1 13.0 9.3 56 4.6 NNE 26 33 14 18 1015.7 1015.8 0.0
29/04:00pm 18.9 14.6 9.2 53 5.1 NNE 22 33 12 18 1015.3 1015.4 0.0
29/03:30pm 18.8 14.7 10.2 57 4.6 NE 22 33 12 18 1015.5 1015.6 0.0
29/03:00pm 18.8 14.8 11.7 63 3.9 NE 24 30 13 16 1015.9 1016.0 0.0
29/02:30pm 19.8 15.5 11.9 60 4.4 NNE 26 35 14 19 1016.0 1016.1 0.0
29/02:00pm 19.4 14.6 11.6 60 4.3 NNE 28 37 15 20 1016.2 1016.3 0.0
29/01:30pm 20.2 14.3 9.0 48 5.9 NNE 30 37 16 20 1016.4 1016.5 0.0
29/01:00pm 19.7 13.8 9.1 50 5.6 NE 30 39 16 21 1016.8 1016.9 0.0
29/12:30pm 18.9 12.2 8.3 50 5.5 NNE 33 41 18 22 1017.3 1017.4 0.0
29/12:00pm 19.3 12.5 6.8 44 6.3 NE 32 44 17 24 1017.5 1017.6 0.0
29/11:30am 18.1 12.7 7.9 51 5.2 NE 26 33 14 18 1018.0 1018.1 0.0
29/11:00am 15.7 10.3 6.5 54 4.5 ENE 24 30 13 16 1018.4 1018.5 0.0
29/10:30am 14.6 9.1 5.8 55 4.2 NE 24 30 13 16 1018.8 1018.9 0.0
29/10:00am 14.1 8.4 5.1 54 4.2 NE 24 30 13 16 1019.0 1019.1 0.0
29/09:30am 12.9 7.2 5.1 59 3.6 NE 24 32 13 17 1019.5 1019.6 0.0
29/09:00am 13.7 7.2 4.9 55 4.1 NE 28 35 15 19 1019.6 1019.7 0.0
29/08:30am 12.2 6.4 4.5 59 3.5 NE 24 30 13 16 1019.8 1019.9 0.0
29/08:00am 11.0 5.5 4.0 62 3.1 NE 22 28 12 15 1019.7 1019.8 0.0
29/07:30am 9.3 3.7 3.5 67 2.5 NE 22 28 12 15 1019.5 1019.6 0.0
29/07:00am 8.8 3.6 3.5 69 2.3 NE 20 26 11 14 1019.2 1019.3 0.0
29/06:30am 8.7 3.5 3.6 70 2.2 NE 20 24 11 13 1018.9 1019.0 0.0
29/06:00am 9.1 4.0 3.3 67 2.5 NE 19 20 10 11 1018.8 1018.9 0.0
29/05:30am 9.7 4.4 3.2 64 2.8 NE 20 26 11 14 1018.6 1018.7 0.0
29/05:00am 10.1 5.1 3.7 64 2.8 NE 19 22 10 12 1018.2 1018.3 0.0
29/04:30am 10.0 5.5 4.1 67 2.6 NE 17 20 9 11 1018.1 1018.2 0.0
29/04:00am 10.3 5.8 4.2 66 2.7 NE 17 20 9 11 1018.3 1018.4 0.0
29/03:30am 10.6 7.3 4.3 65 2.8 NE 11 13 6 7 1018.2 1018.3 0.0
29/03:00am 10.4 7.1 4.6 67 2.6 NE 11 13 6 7 1018.3 1018.4 0.0
29/02:30am 10.2 6.6 4.9 69 2.4 NE 13 15 7 8 1018.4 1018.5 0.0
29/02:00am 10.4 6.3 4.6 67 2.6 NE 15 17 8 9 1018.5 1018.6 0.0
29/01:30am 10.5 6.5 4.7 67 2.6 NNE 15 19 8 10 1018.7 1018.8 0.0
29/01:00am 10.8 6.4 4.6 65 2.8 NE 17 19 9 10 1018.2 1018.3 0.0
29/12:30am 10.9 6.9 4.7 65 2.8 NE 15 17 8 9 1018.2 1018.3 0.0
29/12:00am 10.8 6.4 4.8 66 2.7 NE 17 17 9 9 1018.1 1018.2 0.0
 
Date/Time
CST
Temp
°C
App
Temp
°C
Dew
Point
°C
Rel
Hum
%
Delta-T
°C
Wind Press
QNH
hPa
Press
MSL
hPa
Rain since
9am
mm
Dir  Spd
km/h
Gust
km/h
Spd
kts
Gust
kts
28/11:30pm 10.5 6.5 5.0 69 2.5 NE 15 17 8 9 1018.0 1018.1 0.0
28/11:00pm 9.6 6.6 5.9 78 1.7 NE 11 13 6 7 1018.1 1018.2 0.0
28/10:30pm 10.4 7.0 5.9 73 2.1 NE 13 13 7 7 1018.3 1018.4 0.0
28/10:00pm 10.8 7.9 6.3 74 2.1 NE 11 13 6 7 1018.5 1018.6 0.0
28/09:30pm 10.6 7.6 6.1 74 2.1 NE 11 13 6 7 1018.8 1018.9 0.0
28/09:00pm 11.1 8.0 5.7 69 2.5 NE 11 11 6 6 1018.6 1018.7 0.0
28/08:30pm 11.3 8.2 5.4 67 2.7 NE 11 13 6 7 1018.2 1018.3 0.0
28/08:00pm 11.5 8.4 5.4 66 2.8 NE 11 13 6 7 1017.9 1018.0 0.0
28/07:30pm 12.0 9.4 6.0 66 2.8 ENE 9 11 5 6 1017.6 1017.7 0.0
28/07:00pm 12.7 10.1 5.9 63 3.2 NE 9 9 5 5 1017.6 1017.7 0.0
28/06:30pm 14.0 11.2 5.3 55 4.1 NE 9 9 5 5 1017.4 1017.5 0.0
28/06:00pm 14.4 11.8 6.3 58 3.9 NE 9 9 5 5 1017.0 1017.1 0.0
28/05:30pm 15.4 12.8 6.1 54 4.5 NE 9 11 5 6 1016.7 1016.8 0.0
28/05:00pm 15.7 13.3 7.2 57 4.2 NNE 9 11 5 6 1016.5 1016.6 0.0
28/04:30pm 16.2 13.8 7.1 55 4.5 N 9 11 5 6 1016.4 1016.5 0.0
28/04:00pm 18.3 15.1 6.9 47 5.7 N 13 17 7 9 1016.5 1016.6 0.0

Other Formats:

Comma delimited format used in spreadsheet applications
http://www.bom.gov.au/fwo/IDS60801/IDS60801.94821.axf

JavaScript Object Notation format (JSON) in row-major order
http://www.bom.gov.au/fwo/IDS60801/IDS60801.94821.json